sensor_id;sensor_type;location;lat;lon;timestamp;P1;durP1;ratioP1;P2;durP2;ratioP2
37001;SDS011;22913;51.910;8.374;2022-11-18T00:02:22;7.07;;;5.83;;
37001;SDS011;22913;51.910;8.374;2022-11-18T00:05:07;7.03;;;6.20;;
37001;SDS011;22913;51.910;8.374;2022-11-18T00:07:53;9.23;;;5.67;;
37001;SDS011;22913;51.910;8.374;2022-11-18T00:10:38;6.27;;;5.30;;
37001;SDS011;22913;51.910;8.374;2022-11-18T00:13:24;9.00;;;5.57;;
37001;SDS011;22913;51.910;8.374;2022-11-18T00:16:32;11.73;;;5.50;;
37001;SDS011;22913;51.910;8.374;2022-11-18T00:19:20;8.03;;;6.07;;
37001;SDS011;22913;51.910;8.374;2022-11-18T00:22:08;10.17;;;6.07;;
37001;SDS011;22913;51.910;8.374;2022-11-18T00:24:56;8.27;;;5.30;;
37001;SDS011;22913;51.910;8.374;2022-11-18T00:27:42;13.97;;;5.90;;
37001;SDS011;22913;51.910;8.374;2022-11-18T00:30:27;8.30;;;5.37;;
37001;SDS011;22913;51.910;8.374;2022-11-18T00:33:13;7.27;;;5.73;;
37001;SDS011;22913;51.910;8.374;2022-11-18T00:36:00;10.07;;;6.37;;
37001;SDS011;22913;51.910;8.374;2022-11-18T00:38:45;9.10;;;6.03;;
37001;SDS011;22913;51.910;8.374;2022-11-18T00:41:31;8.77;;;6.00;;
37001;SDS011;22913;51.910;8.374;2022-11-18T00:44:30;8.43;;;6.00;;
37001;SDS011;22913;51.910;8.374;2022-11-18T00:47:16;12.33;;;5.73;;
37001;SDS011;22913;51.910;8.374;2022-11-18T00:50:01;7.67;;;6.30;;
37001;SDS011;22913;51.910;8.374;2022-11-18T00:52:48;6.73;;;5.17;;
37001;SDS011;22913;51.910;8.374;2022-11-18T00:55:34;10.60;;;5.93;;
37001;SDS011;22913;51.910;8.374;2022-11-18T00:58:20;8.97;;;6.03;;
37001;SDS011;22913;51.910;8.374;2022-11-18T01:01:05;10.17;;;5.83;;
37001;SDS011;22913;51.910;8.374;2022-11-18T01:03:51;8.00;;;6.27;;
37001;SDS011;22913;51.910;8.374;2022-11-18T01:06:37;9.30;;;5.77;;
37001;SDS011;22913;51.910;8.374;2022-11-18T01:09:24;10.13;;;5.83;;
37001;SDS011;22913;51.910;8.374;2022-11-18T01:12:09;9.63;;;6.30;;
37001;SDS011;22913;51.910;8.374;2022-11-18T01:15:13;9.23;;;6.20;;
37001;SDS011;22913;51.910;8.374;2022-11-18T01:17:58;9.07;;;5.90;;
37001;SDS011;22913;51.910;8.374;2022-11-18T01:20:44;7.53;;;6.30;;
37001;SDS011;22913;51.910;8.374;2022-11-18T01:23:30;9.87;;;6.33;;
37001;SDS011;22913;51.910;8.374;2022-11-18T01:26:18;8.13;;;6.20;;
37001;SDS011;22913;51.910;8.374;2022-11-18T01:29:03;7.50;;;5.57;;
37001;SDS011;22913;51.910;8.374;2022-11-18T01:31:49;7.97;;;5.67;;
37001;SDS011;22913;51.910;8.374;2022-11-18T01:34:35;12.63;;;6.20;;
37001;SDS011;22913;51.910;8.374;2022-11-18T01:37:20;12.17;;;6.93;;
37001;SDS011;22913;51.910;8.374;2022-11-18T01:40:07;7.57;;;5.77;;
37001;SDS011;22913;51.910;8.374;2022-11-18T01:42:55;11.37;;;6.30;;
37001;SDS011;22913;51.910;8.374;2022-11-18T01:45:41;8.80;;;6.37;;
37001;SDS011;22913;51.910;8.374;2022-11-18T01:48:29;8.77;;;6.03;;
37001;SDS011;22913;51.910;8.374;2022-11-18T01:51:19;10.47;;;6.63;;
37001;SDS011;22913;51.910;8.374;2022-11-18T01:54:11;7.90;;;6.20;;
37001;SDS011;22913;51.910;8.374;2022-11-18T01:57:01;11.83;;;6.20;;
37001;SDS011;22913;51.910;8.374;2022-11-18T01:59:52;10.23;;;6.57;;
37001;SDS011;22913;51.910;8.374;2022-11-18T02:02:40;7.50;;;6.30;;
37001;SDS011;22913;51.910;8.374;2022-11-18T02:05:26;9.30;;;6.43;;
37001;SDS011;22913;51.910;8.374;2022-11-18T02:08:13;7.03;;;6.30;;
37001;SDS011;22913;51.910;8.374;2022-11-18T02:10:59;10.00;;;6.83;;
37001;SDS011;22913;51.910;8.374;2022-11-18T02:13:44;7.43;;;6.30;;
37001;SDS011;22913;51.910;8.374;2022-11-18T02:16:34;9.57;;;6.80;;
37001;SDS011;22913;51.910;8.374;2022-11-18T02:19:44;10.40;;;6.70;;
37001;SDS011;22913;51.910;8.374;2022-11-18T02:22:52;10.37;;;6.90;;
37001;SDS011;22913;51.910;8.374;2022-11-18T02:29:37;10.73;;;6.53;;
37001;SDS011;22913;51.910;8.374;2022-11-18T02:32:31;10.10;;;7.00;;
37001;SDS011;22913;51.910;8.374;2022-11-18T02:35:18;9.63;;;7.43;;
37001;SDS011;22913;51.910;8.374;2022-11-18T02:38:11;10.00;;;7.30;;
37001;SDS011;22913;51.910;8.374;2022-11-18T02:41:01;14.27;;;7.30;;
37001;SDS011;22913;51.910;8.374;2022-11-18T02:43:50;11.67;;;7.27;;
37001;SDS011;22913;51.910;8.374;2022-11-18T02:46:39;9.20;;;6.53;;
37001;SDS011;22913;51.910;8.374;2022-11-18T02:49:30;9.20;;;6.50;;
37001;SDS011;22913;51.910;8.374;2022-11-18T02:52:22;8.83;;;6.60;;
37001;SDS011;22913;51.910;8.374;2022-11-18T02:55:10;7.90;;;5.90;;
37001;SDS011;22913;51.910;8.374;2022-11-18T02:57:58;10.60;;;6.83;;
37001;SDS011;22913;51.910;8.374;2022-11-18T03:00:51;7.83;;;6.43;;
37001;SDS011;22913;51.910;8.374;2022-11-18T03:03:39;9.60;;;6.50;;
37001;SDS011;22913;51.910;8.374;2022-11-18T03:06:26;11.73;;;5.83;;
37001;SDS011;22913;51.910;8.374;2022-11-18T03:09:17;9.10;;;6.20;;
37001;SDS011;22913;51.910;8.374;2022-11-18T03:12:10;9.30;;;5.67;;
37001;SDS011;22913;51.910;8.374;2022-11-18T03:15:02;10.00;;;5.97;;
37001;SDS011;22913;51.910;8.374;2022-11-18T03:17:58;13.33;;;6.23;;
37001;SDS011;22913;51.910;8.374;2022-11-18T03:20:54;8.90;;;5.10;;
37001;SDS011;22913;51.910;8.374;2022-11-18T03:23:43;9.17;;;5.50;;
37001;SDS011;22913;51.910;8.374;2022-11-18T03:26:35;8.27;;;5.30;;
37001;SDS011;22913;51.910;8.374;2022-11-18T03:29:24;9.43;;;5.57;;
37001;SDS011;22913;51.910;8.374;2022-11-18T03:32:15;13.53;;;5.23;;
37001;SDS011;22913;51.910;8.374;2022-11-18T03:35:04;7.17;;;5.60;;
37001;SDS011;22913;51.910;8.374;2022-11-18T03:37:55;8.00;;;5.57;;
37001;SDS011;22913;51.910;8.374;2022-11-18T03:40:47;8.90;;;5.83;;
37001;SDS011;22913;51.910;8.374;2022-11-18T03:43:39;7.10;;;5.17;;
37001;SDS011;22913;51.910;8.374;2022-11-18T03:46:30;8.90;;;5.60;;
37001;SDS011;22913;51.910;8.374;2022-11-18T03:49:21;7.37;;;5.17;;
37001;SDS011;22913;51.910;8.374;2022-11-18T03:52:13;7.77;;;5.97;;
37001;SDS011;22913;51.910;8.374;2022-11-18T03:55:04;7.07;;;5.23;;
37001;SDS011;22913;51.910;8.374;2022-11-18T03:57:58;9.00;;;6.00;;
37001;SDS011;22913;51.910;8.374;2022-11-18T04:00:50;7.17;;;5.97;;
37001;SDS011;22913;51.910;8.374;2022-11-18T04:03:38;11.33;;;6.77;;
37001;SDS011;22913;51.910;8.374;2022-11-18T04:06:28;9.97;;;6.90;;
37001;SDS011;22913;51.910;8.374;2022-11-18T04:09:18;8.50;;;7.43;;
37001;SDS011;22913;51.910;8.374;2022-11-18T04:12:10;12.57;;;8.40;;
37001;SDS011;22913;51.910;8.374;2022-11-18T04:14:59;16.30;;;9.67;;
37001;SDS011;22913;51.910;8.374;2022-11-18T04:17:44;13.67;;;9.80;;
37001;SDS011;22913;51.910;8.374;2022-11-18T04:20:30;13.17;;;9.73;;
37001;SDS011;22913;51.910;8.374;2022-11-18T04:23:16;12.57;;;10.60;;
37001;SDS011;22913;51.910;8.374;2022-11-18T04:26:02;12.20;;;10.73;;
37001;SDS011;22913;51.910;8.374;2022-11-18T04:28:49;13.20;;;11.77;;
37001;SDS011;22913;51.910;8.374;2022-11-18T04:31:35;12.70;;;11.23;;
37001;SDS011;22913;51.910;8.374;2022-11-18T04:34:20;14.03;;;11.23;;
37001;SDS011;22913;51.910;8.374;2022-11-18T04:37:06;14.03;;;12.57;;
37001;SDS011;22913;51.910;8.374;2022-11-18T04:39:51;15.27;;;12.23;;
37001;SDS011;22913;51.910;8.374;2022-11-18T04:42:37;13.10;;;11.80;;
37001;SDS011;22913;51.910;8.374;2022-11-18T04:45:23;14.27;;;12.60;;
37001;SDS011;22913;51.910;8.374;2022-11-18T04:48:09;14.20;;;12.50;;
37001;SDS011;22913;51.910;8.374;2022-11-18T04:50:55;11.93;;;10.17;;
37001;SDS011;22913;51.910;8.374;2022-11-18T04:53:40;13.40;;;12.00;;
37001;SDS011;22913;51.910;8.374;2022-11-18T04:56:26;15.10;;;12.10;;
37001;SDS011;22913;51.910;8.374;2022-11-18T04:59:12;13.17;;;11.77;;
37001;SDS011;22913;51.910;8.374;2022-11-18T05:02:00;14.03;;;11.47;;
37001;SDS011;22913;51.910;8.374;2022-11-18T05:04:46;13.37;;;11.60;;
37001;SDS011;22913;51.910;8.374;2022-11-18T05:07:32;12.33;;;10.80;;
37001;SDS011;22913;51.910;8.374;2022-11-18T05:10:17;14.53;;;11.77;;
37001;SDS011;22913;51.910;8.374;2022-11-18T05:13:03;13.90;;;11.67;;
37001;SDS011;22913;51.910;8.374;2022-11-18T05:15:48;14.43;;;10.90;;
37001;SDS011;22913;51.910;8.374;2022-11-18T05:18:35;13.77;;;11.30;;
37001;SDS011;22913;51.910;8.374;2022-11-18T05:21:20;12.57;;;10.83;;
37001;SDS011;22913;51.910;8.374;2022-11-18T05:24:06;13.67;;;11.17;;
37001;SDS011;22913;51.910;8.374;2022-11-18T05:26:52;13.87;;;10.80;;
37001;SDS011;22913;51.910;8.374;2022-11-18T05:29:38;15.13;;;10.87;;
37001;SDS011;22913;51.910;8.374;2022-11-18T05:32:23;13.70;;;10.77;;
37001;SDS011;22913;51.910;8.374;2022-11-18T05:35:10;13.80;;;11.37;;
37001;SDS011;22913;51.910;8.374;2022-11-18T05:37:56;12.20;;;10.17;;
37001;SDS011;22913;51.910;8.374;2022-11-18T05:40:41;12.87;;;10.63;;
37001;SDS011;22913;51.910;8.374;2022-11-18T05:43:27;14.00;;;10.67;;
37001;SDS011;22913;51.910;8.374;2022-11-18T05:46:12;15.47;;;10.77;;
37001;SDS011;22913;51.910;8.374;2022-11-18T05:48:57;15.93;;;10.53;;
37001;SDS011;22913;51.910;8.374;2022-11-18T05:51:44;11.43;;;9.97;;
37001;SDS011;22913;51.910;8.374;2022-11-18T05:54:30;13.33;;;10.27;;
37001;SDS011;22913;51.910;8.374;2022-11-18T05:57:16;12.50;;;10.43;;
37001;SDS011;22913;51.910;8.374;2022-11-18T06:00:01;15.73;;;10.93;;
37001;SDS011;22913;51.910;8.374;2022-11-18T06:02:47;8.87;;;7.97;;
37001;SDS011;22913;51.910;8.374;2022-11-18T06:05:34;11.57;;;9.90;;
37001;SDS011;22913;51.910;8.374;2022-11-18T06:08:21;14.17;;;11.40;;
37001;SDS011;22913;51.910;8.374;2022-11-18T06:11:11;13.13;;;11.50;;
37001;SDS011;22913;51.910;8.374;2022-11-18T06:14:00;15.20;;;11.23;;
37001;SDS011;22913;51.910;8.374;2022-11-18T06:16:50;12.70;;;11.17;;
37001;SDS011;22913;51.910;8.374;2022-11-18T06:19:55;13.20;;;11.80;;
37001;SDS011;22913;51.910;8.374;2022-11-18T06:22:41;15.40;;;11.10;;
37001;SDS011;22913;51.910;8.374;2022-11-18T06:25:27;14.27;;;11.87;;
37001;SDS011;22913;51.910;8.374;2022-11-18T06:28:14;14.50;;;11.27;;
37001;SDS011;22913;51.910;8.374;2022-11-18T06:31:00;13.20;;;11.80;;
37001;SDS011;22913;51.910;8.374;2022-11-18T06:33:46;13.63;;;12.17;;
37001;SDS011;22913;51.910;8.374;2022-11-18T06:36:33;13.50;;;12.07;;
37001;SDS011;22913;51.910;8.374;2022-11-18T06:39:18;14.93;;;11.93;;
37001;SDS011;22913;51.910;8.374;2022-11-18T06:42:03;11.80;;;10.23;;
37001;SDS011;22913;51.910;8.374;2022-11-18T06:44:49;13.53;;;12.13;;
37001;SDS011;22913;51.910;8.374;2022-11-18T06:47:34;14.67;;;12.93;;
37001;SDS011;22913;51.910;8.374;2022-11-18T06:50:19;17.73;;;13.33;;
37001;SDS011;22913;51.910;8.374;2022-11-18T06:53:06;16.70;;;14.90;;
37001;SDS011;22913;51.910;8.374;2022-11-18T06:55:52;21.27;;;15.67;;
37001;SDS011;22913;51.910;8.374;2022-11-18T06:58:38;21.03;;;16.40;;
37001;SDS011;22913;51.910;8.374;2022-11-18T07:01:25;19.30;;;15.23;;
37001;SDS011;22913;51.910;8.374;2022-11-18T07:04:11;17.70;;;15.40;;
37001;SDS011;22913;51.910;8.374;2022-11-18T07:06:57;18.97;;;15.07;;
37001;SDS011;22913;51.910;8.374;2022-11-18T07:09:43;21.03;;;14.80;;
37001;SDS011;22913;51.910;8.374;2022-11-18T07:12:29;19.67;;;14.43;;
37001;SDS011;22913;51.910;8.374;2022-11-18T07:15:14;22.33;;;15.83;;
37001;SDS011;22913;51.910;8.374;2022-11-18T07:17:59;25.87;;;16.43;;
37001;SDS011;22913;51.910;8.374;2022-11-18T07:20:45;27.83;;;15.97;;
37001;SDS011;22913;51.910;8.374;2022-11-18T07:23:31;22.47;;;15.47;;
37001;SDS011;22913;51.910;8.374;2022-11-18T07:26:19;24.90;;;15.23;;
37001;SDS011;22913;51.910;8.374;2022-11-18T07:29:05;24.13;;;14.50;;
37001;SDS011;22913;51.910;8.374;2022-11-18T07:31:51;21.83;;;15.10;;
37001;SDS011;22913;51.910;8.374;2022-11-18T07:34:36;24.03;;;14.93;;
37001;SDS011;22913;51.910;8.374;2022-11-18T07:37:22;20.17;;;14.27;;
37001;SDS011;22913;51.910;8.374;2022-11-18T07:40:08;17.73;;;14.13;;
37001;SDS011;22913;51.910;8.374;2022-11-18T07:42:55;19.93;;;14.17;;
37001;SDS011;22913;51.910;8.374;2022-11-18T07:45:41;20.80;;;14.77;;
37001;SDS011;22913;51.910;8.374;2022-11-18T07:48:26;19.33;;;14.17;;
37001;SDS011;22913;51.910;8.374;2022-11-18T07:51:12;17.17;;;13.60;;
37001;SDS011;22913;51.910;8.374;2022-11-18T07:53:59;15.97;;;13.37;;
37001;SDS011;22913;51.910;8.374;2022-11-18T07:56:45;16.33;;;13.43;;
37001;SDS011;22913;51.910;8.374;2022-11-18T07:59:32;25.33;;;14.50;;
37001;SDS011;22913;51.910;8.374;2022-11-18T08:02:17;17.30;;;13.93;;
37001;SDS011;22913;51.910;8.374;2022-11-18T08:05:03;17.87;;;13.13;;
37001;SDS011;22913;51.910;8.374;2022-11-18T08:07:49;15.80;;;14.03;;
37001;SDS011;22913;51.910;8.374;2022-11-18T08:10:35;16.33;;;14.13;;
37001;SDS011;22913;51.910;8.374;2022-11-18T08:13:20;18.13;;;14.77;;
37001;SDS011;22913;51.910;8.374;2022-11-18T08:16:12;22.67;;;16.37;;
37001;SDS011;22913;51.910;8.374;2022-11-18T08:18:58;21.33;;;15.53;;
37001;SDS011;22913;51.910;8.374;2022-11-18T08:21:44;18.00;;;14.90;;
37001;SDS011;22913;51.910;8.374;2022-11-18T08:24:30;21.70;;;15.57;;
37001;SDS011;22913;51.910;8.374;2022-11-18T08:27:15;19.13;;;15.20;;
37001;SDS011;22913;51.910;8.374;2022-11-18T08:30:01;20.53;;;15.30;;
37001;SDS011;22913;51.910;8.374;2022-11-18T08:32:48;23.80;;;16.23;;
37001;SDS011;22913;51.910;8.374;2022-11-18T08:35:33;21.23;;;16.03;;
37001;SDS011;22913;51.910;8.374;2022-11-18T08:38:19;19.73;;;15.00;;
37001;SDS011;22913;51.910;8.374;2022-11-18T08:41:05;18.37;;;14.43;;
37001;SDS011;22913;51.910;8.374;2022-11-18T08:43:50;18.67;;;14.37;;
37001;SDS011;22913;51.910;8.374;2022-11-18T08:46:36;17.27;;;13.93;;
37001;SDS011;22913;51.910;8.374;2022-11-18T08:49:23;17.03;;;15.23;;
37001;SDS011;22913;51.910;8.374;2022-11-18T08:52:08;19.20;;;15.07;;
37001;SDS011;22913;51.910;8.374;2022-11-18T08:54:53;16.97;;;14.63;;
37001;SDS011;22913;51.910;8.374;2022-11-18T08:57:39;22.27;;;15.30;;
37001;SDS011;22913;51.910;8.374;2022-11-18T09:00:25;17.00;;;15.20;;
37001;SDS011;22913;51.910;8.374;2022-11-18T09:03:10;19.03;;;15.37;;
37001;SDS011;22913;51.910;8.374;2022-11-18T09:06:04;19.10;;;14.77;;
37001;SDS011;22913;51.910;8.374;2022-11-18T09:08:51;16.73;;;14.93;;
37001;SDS011;22913;51.910;8.374;2022-11-18T09:11:37;19.07;;;14.57;;
37001;SDS011;22913;51.910;8.374;2022-11-18T09:14:23;17.70;;;14.23;;
37001;SDS011;22913;51.910;8.374;2022-11-18T09:17:08;17.17;;;13.67;;
37001;SDS011;22913;51.910;8.374;2022-11-18T09:19:54;18.33;;;14.10;;
37001;SDS011;22913;51.910;8.374;2022-11-18T09:22:41;16.90;;;13.80;;
37001;SDS011;22913;51.910;8.374;2022-11-18T09:25:27;16.67;;;14.13;;
37001;SDS011;22913;51.910;8.374;2022-11-18T09:28:13;17.90;;;13.10;;
37001;SDS011;22913;51.910;8.374;2022-11-18T09:31:00;18.20;;;13.40;;
37001;SDS011;22913;51.910;8.374;2022-11-18T09:33:48;17.40;;;14.03;;
37001;SDS011;22913;51.910;8.374;2022-11-18T09:36:33;15.60;;;13.90;;
37001;SDS011;22913;51.910;8.374;2022-11-18T09:39:20;15.87;;;12.87;;
37001;SDS011;22913;51.910;8.374;2022-11-18T09:42:10;16.27;;;13.30;;
37001;SDS011;22913;51.910;8.374;2022-11-18T09:45:11;16.33;;;13.57;;
37001;SDS011;22913;51.910;8.374;2022-11-18T09:48:07;14.23;;;12.33;;
37001;SDS011;22913;51.910;8.374;2022-11-18T09:51:00;21.53;;;12.90;;
37001;SDS011;22913;51.910;8.374;2022-11-18T09:53:45;15.17;;;12.00;;
37001;SDS011;22913;51.910;8.374;2022-11-18T09:56:32;12.63;;;11.40;;
37001;SDS011;22913;51.910;8.374;2022-11-18T09:59:19;12.80;;;11.50;;
37001;SDS011;22913;51.910;8.374;2022-11-18T10:02:21;14.93;;;11.23;;
37001;SDS011;22913;51.910;8.374;2022-11-18T10:05:14;16.37;;;11.53;;
37001;SDS011;22913;51.910;8.374;2022-11-18T10:08:11;14.20;;;11.03;;
37001;SDS011;22913;51.910;8.374;2022-11-18T10:11:05;12.77;;;11.30;;
37001;SDS011;22913;51.910;8.374;2022-11-18T10:13:59;11.30;;;10.20;;
37001;SDS011;22913;51.910;8.374;2022-11-18T10:16:57;13.60;;;11.03;;
37001;SDS011;22913;51.910;8.374;2022-11-18T10:19:51;12.03;;;10.83;;
37001;SDS011;22913;51.910;8.374;2022-11-18T10:22:55;12.43;;;11.03;;
37001;SDS011;22913;51.910;8.374;2022-11-18T10:25:43;11.43;;;10.27;;
37001;SDS011;22913;51.910;8.374;2022-11-18T10:28:29;14.23;;;12.10;;
37001;SDS011;22913;51.910;8.374;2022-11-18T10:31:16;11.80;;;10.70;;
37001;SDS011;22913;51.910;8.374;2022-11-18T10:34:02;10.80;;;9.70;;
37001;SDS011;22913;51.910;8.374;2022-11-18T10:36:57;14.20;;;11.37;;
37001;SDS011;22913;51.910;8.374;2022-11-18T10:39:48;13.03;;;10.07;;
37001;SDS011;22913;51.910;8.374;2022-11-18T10:42:34;11.60;;;10.40;;
37001;SDS011;22913;51.910;8.374;2022-11-18T10:45:25;12.57;;;10.07;;
37001;SDS011;22913;51.910;8.374;2022-11-18T10:48:17;11.00;;;9.93;;
37001;SDS011;22913;51.910;8.374;2022-11-18T10:51:03;11.30;;;10.03;;
37001;SDS011;22913;51.910;8.374;2022-11-18T10:54:06;10.93;;;9.80;;
37001;SDS011;22913;51.910;8.374;2022-11-18T10:56:55;10.53;;;9.40;;
37001;SDS011;22913;51.910;8.374;2022-11-18T10:59:45;10.23;;;8.67;;
37001;SDS011;22913;51.910;8.374;2022-11-18T11:02:34;10.60;;;9.50;;
37001;SDS011;22913;51.910;8.374;2022-11-18T11:05:25;10.50;;;8.27;;
37001;SDS011;22913;51.910;8.374;2022-11-18T11:08:17;10.53;;;8.83;;
37001;SDS011;22913;51.910;8.374;2022-11-18T11:11:04;11.27;;;8.93;;
37001;SDS011;22913;51.910;8.374;2022-11-18T11:13:49;9.53;;;8.63;;
37001;SDS011;22913;51.910;8.374;2022-11-18T11:16:38;10.13;;;9.10;;
37001;SDS011;22913;51.910;8.374;2022-11-18T11:19:32;9.20;;;8.30;;
37001;SDS011;22913;51.910;8.374;2022-11-18T11:22:30;8.93;;;8.03;;
37001;SDS011;22913;51.910;8.374;2022-11-18T11:25:17;10.20;;;8.00;;
37001;SDS011;22913;51.910;8.374;2022-11-18T11:28:07;10.33;;;8.43;;
37001;SDS011;22913;51.910;8.374;2022-11-18T11:31:05;8.80;;;7.77;;
37001;SDS011;22913;51.910;8.374;2022-11-18T11:34:01;10.70;;;7.60;;
37001;SDS011;22913;51.910;8.374;2022-11-18T11:36:56;8.17;;;7.37;;
37001;SDS011;22913;51.910;8.374;2022-11-18T11:39:58;8.83;;;7.13;;
37001;SDS011;22913;51.910;8.374;2022-11-18T11:43:15;8.13;;;7.17;;
37001;SDS011;22913;51.910;8.374;2022-11-18T11:46:22;7.77;;;7.07;;
37001;SDS011;22913;51.910;8.374;2022-11-18T11:49:17;8.37;;;7.30;;
37001;SDS011;22913;51.910;8.374;2022-11-18T11:52:10;7.30;;;6.57;;
37001;SDS011;22913;51.910;8.374;2022-11-18T11:55:06;8.23;;;7.43;;
37001;SDS011;22913;51.910;8.374;2022-11-18T11:58:07;7.50;;;6.80;;
37001;SDS011;22913;51.910;8.374;2022-11-18T12:01:04;8.77;;;7.10;;
37001;SDS011;22913;51.910;8.374;2022-11-18T12:04:04;7.83;;;6.80;;
37001;SDS011;22913;51.910;8.374;2022-11-18T12:06:56;7.77;;;6.90;;
37001;SDS011;22913;51.910;8.374;2022-11-18T12:09:47;7.20;;;6.50;;
37001;SDS011;22913;51.910;8.374;2022-11-18T12:12:49;7.27;;;6.00;;
37001;SDS011;22913;51.910;8.374;2022-11-18T12:15:42;6.63;;;6.07;;
37001;SDS011;22913;51.910;8.374;2022-11-18T12:18:35;7.30;;;6.60;;
37001;SDS011;22913;51.910;8.374;2022-11-18T12:24:36;10.10;;;7.47;;
37001;SDS011;22913;51.910;8.374;2022-11-18T12:30:41;7.80;;;6.70;;
37001;SDS011;22913;51.910;8.374;2022-11-18T12:33:27;7.50;;;6.73;;
37001;SDS011;22913;51.910;8.374;2022-11-18T12:36:23;8.70;;;7.80;;
37001;SDS011;22913;51.910;8.374;2022-11-18T12:42:40;8.20;;;7.30;;
37001;SDS011;22913;51.910;8.374;2022-11-18T12:45:48;8.70;;;7.83;;
37001;SDS011;22913;51.910;8.374;2022-11-18T12:48:38;7.93;;;6.93;;
37001;SDS011;22913;51.910;8.374;2022-11-18T12:51:37;7.20;;;6.50;;
37001;SDS011;22913;51.910;8.374;2022-11-18T12:54:26;8.43;;;7.13;;
37001;SDS011;22913;51.910;8.374;2022-11-18T12:57:14;7.77;;;7.03;;
37001;SDS011;22913;51.910;8.374;2022-11-18T13:00:14;8.23;;;7.33;;
37001;SDS011;22913;51.910;8.374;2022-11-18T13:03:03;7.77;;;6.87;;
37001;SDS011;22913;51.910;8.374;2022-11-18T13:05:49;7.80;;;7.07;;
37001;SDS011;22913;51.910;8.374;2022-11-18T13:08:42;7.73;;;7.03;;
37001;SDS011;22913;51.910;8.374;2022-11-18T13:11:28;7.57;;;6.50;;
37001;SDS011;22913;51.910;8.374;2022-11-18T13:14:32;8.10;;;6.87;;
37001;SDS011;22913;51.910;8.374;2022-11-18T13:17:36;7.80;;;7.00;;
37001;SDS011;22913;51.910;8.374;2022-11-18T13:20:39;7.13;;;6.43;;
37001;SDS011;22913;51.910;8.374;2022-11-18T13:23:26;6.70;;;6.10;;
37001;SDS011;22913;51.910;8.374;2022-11-18T13:26:32;6.77;;;5.97;;
37001;SDS011;22913;51.910;8.374;2022-11-18T13:32:26;7.67;;;6.13;;
37001;SDS011;22913;51.910;8.374;2022-11-18T13:35:13;6.40;;;5.67;;
37001;SDS011;22913;51.910;8.374;2022-11-18T13:38:02;7.20;;;5.33;;
37001;SDS011;22913;51.910;8.374;2022-11-18T13:40:51;6.70;;;6.03;;
37001;SDS011;22913;51.910;8.374;2022-11-18T13:43:50;6.50;;;5.80;;
37001;SDS011;22913;51.910;8.374;2022-11-18T13:46:37;6.10;;;5.50;;
37001;SDS011;22913;51.910;8.374;2022-11-18T13:49:27;6.60;;;6.00;;
37001;SDS011;22913;51.910;8.374;2022-11-18T13:52:26;5.97;;;5.43;;
37001;SDS011;22913;51.910;8.374;2022-11-18T13:55:17;6.47;;;5.87;;
37001;SDS011;22913;51.910;8.374;2022-11-18T13:58:10;6.70;;;6.00;;
37001;SDS011;22913;51.910;8.374;2022-11-18T14:01:17;5.97;;;5.37;;
37001;SDS011;22913;51.910;8.374;2022-11-18T14:04:06;6.20;;;5.60;;
37001;SDS011;22913;51.910;8.374;2022-11-18T14:07:20;6.23;;;5.73;;
37001;SDS011;22913;51.910;8.374;2022-11-18T14:10:09;6.93;;;6.00;;
37001;SDS011;22913;51.910;8.374;2022-11-18T14:13:00;5.33;;;4.80;;
37001;SDS011;22913;51.910;8.374;2022-11-18T14:15:46;9.07;;;5.93;;
37001;SDS011;22913;51.910;8.374;2022-11-18T14:18:33;6.57;;;5.97;;
37001;SDS011;22913;51.910;8.374;2022-11-18T14:21:24;6.70;;;6.00;;
37001;SDS011;22913;51.910;8.374;2022-11-18T14:24:12;7.10;;;6.40;;
37001;SDS011;22913;51.910;8.374;2022-11-18T14:26:58;8.17;;;6.20;;
37001;SDS011;22913;51.910;8.374;2022-11-18T14:30:35;7.47;;;6.40;;
37001;SDS011;22913;51.910;8.374;2022-11-18T14:33:22;7.13;;;6.10;;
37001;SDS011;22913;51.910;8.374;2022-11-18T14:36:09;7.37;;;6.67;;
37001;SDS011;22913;51.910;8.374;2022-11-18T14:38:58;8.00;;;6.90;;
37001;SDS011;22913;51.910;8.374;2022-11-18T14:41:43;7.20;;;6.50;;
37001;SDS011;22913;51.910;8.374;2022-11-18T14:44:31;7.67;;;6.97;;
37001;SDS011;22913;51.910;8.374;2022-11-18T14:47:21;7.63;;;6.20;;
37001;SDS011;22913;51.910;8.374;2022-11-18T14:50:11;6.07;;;5.50;;
37001;SDS011;22913;51.910;8.374;2022-11-18T14:52:56;6.57;;;5.97;;
37001;SDS011;22913;51.910;8.374;2022-11-18T14:55:42;7.27;;;6.57;;
37001;SDS011;22913;51.910;8.374;2022-11-18T14:58:28;7.30;;;6.67;;
37001;SDS011;22913;51.910;8.374;2022-11-18T15:01:13;7.00;;;6.30;;
37001;SDS011;22913;51.910;8.374;2022-11-18T15:04:01;7.13;;;5.83;;
37001;SDS011;22913;51.910;8.374;2022-11-18T15:06:46;7.57;;;6.20;;
37001;SDS011;22913;51.910;8.374;2022-11-18T15:09:32;6.33;;;5.73;;
37001;SDS011;22913;51.910;8.374;2022-11-18T15:12:17;5.87;;;5.37;;
37001;SDS011;22913;51.910;8.374;2022-11-18T15:15:03;6.20;;;5.60;;
37001;SDS011;22913;51.910;8.374;2022-11-18T15:17:49;6.07;;;5.47;;
37001;SDS011;22913;51.910;8.374;2022-11-18T15:20:36;6.33;;;5.83;;
37001;SDS011;22913;51.910;8.374;2022-11-18T15:23:22;5.87;;;5.37;;
37001;SDS011;22913;51.910;8.374;2022-11-18T15:26:14;6.97;;;5.77;;
37001;SDS011;22913;51.910;8.374;2022-11-18T15:29:02;7.00;;;5.90;;
37001;SDS011;22913;51.910;8.374;2022-11-18T15:31:47;6.20;;;5.60;;
37001;SDS011;22913;51.910;8.374;2022-11-18T15:34:34;6.73;;;6.13;;
37001;SDS011;22913;51.910;8.374;2022-11-18T15:37:21;8.20;;;5.97;;
37001;SDS011;22913;51.910;8.374;2022-11-18T15:40:07;7.63;;;6.77;;
37001;SDS011;22913;51.910;8.374;2022-11-18T15:42:53;7.93;;;6.23;;
37001;SDS011;22913;51.910;8.374;2022-11-18T15:45:39;5.57;;;4.97;;
37001;SDS011;22913;51.910;8.374;2022-11-18T15:48:24;6.00;;;5.43;;
37001;SDS011;22913;51.910;8.374;2022-11-18T15:51:11;5.53;;;5.03;;
37001;SDS011;22913;51.910;8.374;2022-11-18T15:53:58;7.33;;;6.63;;
37001;SDS011;22913;51.910;8.374;2022-11-18T15:56:43;6.37;;;5.77;;
37001;SDS011;22913;51.910;8.374;2022-11-18T15:59:29;8.00;;;7.20;;
37001;SDS011;22913;51.910;8.374;2022-11-18T16:02:14;9.47;;;7.53;;
37001;SDS011;22913;51.910;8.374;2022-11-18T16:05:00;9.40;;;8.60;;
37001;SDS011;22913;51.910;8.374;2022-11-18T16:07:46;10.73;;;9.73;;
37001;SDS011;22913;51.910;8.374;2022-11-18T16:10:33;9.73;;;8.83;;
37001;SDS011;22913;51.910;8.374;2022-11-18T16:13:37;11.83;;;10.50;;
37001;SDS011;22913;51.910;8.374;2022-11-18T16:16:23;11.50;;;10.07;;
37001;SDS011;22913;51.910;8.374;2022-11-18T16:19:10;15.20;;;13.10;;
37001;SDS011;22913;51.910;8.374;2022-11-18T16:21:57;10.13;;;9.10;;
37001;SDS011;22913;51.910;8.374;2022-11-18T16:24:42;7.93;;;7.23;;
37001;SDS011;22913;51.910;8.374;2022-11-18T16:27:29;8.83;;;7.93;;
37001;SDS011;22913;51.910;8.374;2022-11-18T16:30:14;9.27;;;7.70;;
37001;SDS011;22913;51.910;8.374;2022-11-18T16:33:14;11.20;;;9.17;;
37001;SDS011;22913;51.910;8.374;2022-11-18T16:35:59;12.07;;;9.80;;
37001;SDS011;22913;51.910;8.374;2022-11-18T16:38:45;9.40;;;8.40;;
37001;SDS011;22913;51.910;8.374;2022-11-18T16:41:31;10.40;;;8.50;;
37001;SDS011;22913;51.910;8.374;2022-11-18T16:44:18;8.20;;;7.40;;
37001;SDS011;22913;51.910;8.374;2022-11-18T16:47:04;8.00;;;7.30;;
37001;SDS011;22913;51.910;8.374;2022-11-18T16:49:50;13.10;;;11.03;;
37001;SDS011;22913;51.910;8.374;2022-11-18T16:52:35;10.07;;;8.63;;
37001;SDS011;22913;51.910;8.374;2022-11-18T16:55:21;7.40;;;6.63;;
37001;SDS011;22913;51.910;8.374;2022-11-18T16:58:06;9.30;;;8.07;;
37001;SDS011;22913;51.910;8.374;2022-11-18T17:00:53;11.57;;;9.63;;
37001;SDS011;22913;51.910;8.374;2022-11-18T17:03:38;6.93;;;5.97;;